sensor_id;sensor_type;location;lat;lon;timestamp;temperature;humidity
39585;DHT22;25278;53.674;10.014;2022-07-12T03:32:58;13.00;99.90
39585;DHT22;25278;53.674;10.014;2022-07-12T03:35:24;13.00;99.90
39585;DHT22;25278;53.674;10.014;2022-07-12T03:37:50;12.90;99.90
39585;DHT22;25278;53.674;10.014;2022-07-12T03:40:16;12.90;99.90
39585;DHT22;25278;53.674;10.014;2022-07-12T03:42:42;12.90;99.90
39585;DHT22;25278;53.674;10.014;2022-07-12T03:45:09;13.20;99.90
39585;DHT22;25278;53.674;10.014;2022-07-12T03:47:34;13.60;99.90
39585;DHT22;25278;53.674;10.014;2022-07-12T03:50:05;13.70;99.90
39585;DHT22;25278;53.674;10.014;2022-07-12T03:52:31;13.50;99.90
39585;DHT22;25278;53.674;10.014;2022-07-12T03:54:57;13.30;99.90
39585;DHT22;25278;53.674;10.014;2022-07-12T03:57:22;13.30;99.90
39585;DHT22;25278;53.674;10.014;2022-07-12T03:59:48;13.30;99.90
39585;DHT22;25278;53.674;10.014;2022-07-12T04:02:17;13.30;99.90
39585;DHT22;25278;53.674;10.014;2022-07-12T04:04:42;13.30;99.90
39585;DHT22;25278;53.674;10.014;2022-07-12T04:07:08;13.30;99.90
39585;DHT22;25278;53.674;10.014;2022-07-12T04:09:33;13.40;99.90
39585;DHT22;25278;53.674;10.014;2022-07-12T04:11:59;13.40;99.90
39585;DHT22;25278;53.674;10.014;2022-07-12T04:14:24;13.40;99.90
39585;DHT22;25278;53.674;10.014;2022-07-12T04:16:50;13.40;99.90
39585;DHT22;25278;53.674;10.014;2022-07-12T04:19:15;13.40;99.90
39585;DHT22;25278;53.674;10.014;2022-07-12T04:21:41;13.60;99.90
39585;DHT22;25278;53.674;10.014;2022-07-12T04:24:06;13.60;99.90
39585;DHT22;25278;53.674;10.014;2022-07-12T04:26:32;13.60;99.90
39585;DHT22;25278;53.674;10.014;2022-07-12T04:28:58;13.70;99.90
39585;DHT22;25278;53.674;10.014;2022-07-12T04:31:24;13.60;99.90
39585;DHT22;25278;53.674;10.014;2022-07-12T04:33:50;13.50;99.90
39585;DHT22;25278;53.674;10.014;2022-07-12T04:36:15;13.40;99.90
39585;DHT22;25278;53.674;10.014;2022-07-12T04:38:41;13.50;99.90
39585;DHT22;25278;53.674;10.014;2022-07-12T04:41:06;13.50;99.90
39585;DHT22;25278;53.674;10.014;2022-07-12T04:43:32;13.60;99.90
39585;DHT22;25278;53.674;10.014;2022-07-12T04:46:07;13.60;99.90
39585;DHT22;25278;53.674;10.014;2022-07-12T04:48:32;13.80;99.90
39585;DHT22;25278;53.674;10.014;2022-07-12T04:50:58;13.90;99.90
39585;DHT22;25278;53.674;10.014;2022-07-12T04:53:23;14.20;99.90
39585;DHT22;25278;53.674;10.014;2022-07-12T04:55:49;14.40;99.90
39585;DHT22;25278;53.674;10.014;2022-07-12T04:58:14;14.60;99.90
39585;DHT22;25278;53.674;10.014;2022-07-12T05:00:43;14.60;99.90
39585;DHT22;25278;53.674;10.014;2022-07-12T05:03:08;14.60;99.90
39585;DHT22;25278;53.674;10.014;2022-07-12T05:05:34;14.80;99.90
39585;DHT22;25278;53.674;10.014;2022-07-12T05:07:59;15.00;99.90
39585;DHT22;25278;53.674;10.014;2022-07-12T05:10:25;15.20;99.90
39585;DHT22;25278;53.674;10.014;2022-07-12T05:12:50;15.30;99.90
39585;DHT22;25278;53.674;10.014;2022-07-12T05:15:16;15.60;99.90
39585;DHT22;25278;53.674;10.014;2022-07-12T05:17:41;15.80;99.90
39585;DHT22;25278;53.674;10.014;2022-07-12T05:20:07;15.90;99.90
39585;DHT22;25278;53.674;10.014;2022-07-12T05:22:32;15.90;99.90
39585;DHT22;25278;53.674;10.014;2022-07-12T05:24:58;15.80;99.90
39585;DHT22;25278;53.674;10.014;2022-07-12T05:27:23;15.80;99.90
39585;DHT22;25278;53.674;10.014;2022-07-12T05:29:49;15.70;99.90
39585;DHT22;25278;53.674;10.014;2022-07-12T05:32:14;15.70;99.90
39585;DHT22;25278;53.674;10.014;2022-07-12T05:34:40;15.80;99.90
39585;DHT22;25278;53.674;10.014;2022-07-12T05:37:05;15.90;99.90
39585;DHT22;25278;53.674;10.014;2022-07-12T05:39:31;16.10;99.90
39585;DHT22;25278;53.674;10.014;2022-07-12T05:41:56;16.10;99.90
39585;DHT22;25278;53.674;10.014;2022-07-12T05:44:22;16.30;99.90
39585;DHT22;25278;53.674;10.014;2022-07-12T05:46:48;16.40;99.90
39585;DHT22;25278;53.674;10.014;2022-07-12T05:49:13;16.50;99.90
39585;DHT22;25278;53.674;10.014;2022-07-12T05:51:39;16.50;99.90
39585;DHT22;25278;53.674;10.014;2022-07-12T05:54:23;16.50;99.90
39585;DHT22;25278;53.674;10.014;2022-07-12T05:56:48;16.50;99.90
39585;DHT22;25278;53.674;10.014;2022-07-12T05:59:16;16.60;99.90
39585;DHT22;25278;53.674;10.014;2022-07-12T06:01:42;16.60;99.90
39585;DHT22;25278;53.674;10.014;2022-07-12T07:04:55;16.70;99.90
39585;DHT22;25278;53.674;10.014;2022-07-12T07:07:21;18.50;99.90
39585;DHT22;25278;53.674;10.014;2022-07-12T07:09:46;18.50;99.90
39585;DHT22;25278;53.674;10.014;2022-07-12T07:12:12;18.50;99.90
39585;DHT22;25278;53.674;10.014;2022-07-12T07:14:37;18.30;99.90
39585;DHT22;25278;53.674;10.014;2022-07-12T07:17:03;18.20;99.90
39585;DHT22;25278;53.674;10.014;2022-07-12T07:21:54;18.40;99.90
39585;DHT22;25278;53.674;10.014;2022-07-12T07:26:46;18.90;99.90
39585;DHT22;25278;53.674;10.014;2022-07-12T08:20:37;19.20;99.90
39585;DHT22;25278;53.674;10.014;2022-07-12T08:23:03;19.80;99.90
39585;DHT22;25278;53.674;10.014;2022-07-12T08:25:28;19.90;99.90
39585;DHT22;25278;53.674;10.014;2022-07-12T08:27:54;20.00;99.90
39585;DHT22;25278;53.674;10.014;2022-07-12T08:30:19;20.30;99.90
39585;DHT22;25278;53.674;10.014;2022-07-12T08:32:45;20.50;99.90
39585;DHT22;25278;53.674;10.014;2022-07-12T08:35:11;20.50;99.90
39585;DHT22;25278;53.674;10.014;2022-07-12T08:37:36;20.50;99.90
39585;DHT22;25278;53.674;10.014;2022-07-12T08:40:02;20.10;99.90
39585;DHT22;25278;53.674;10.014;2022-07-12T08:42:28;20.00;99.90
39585;DHT22;25278;53.674;10.014;2022-07-12T08:44:54;20.50;99.90
39585;DHT22;25278;53.674;10.014;2022-07-12T08:47:20;20.70;99.90
39585;DHT22;25278;53.674;10.014;2022-07-12T08:52:30;20.60;99.90
39585;DHT22;25278;53.674;10.014;2022-07-12T08:54:55;20.20;99.90
39585;DHT22;25278;53.674;10.014;2022-07-12T08:57:30;20.10;99.90
39585;DHT22;25278;53.674;10.014;2022-07-12T08:59:59;20.20;99.90
39585;DHT22;25278;53.674;10.014;2022-07-12T09:02:25;20.20;99.90
39585;DHT22;25278;53.674;10.014;2022-07-12T09:05:06;20.40;99.90
39585;DHT22;25278;53.674;10.014;2022-07-12T09:07:34;20.80;99.90
39585;DHT22;25278;53.674;10.014;2022-07-12T09:10:02;21.00;99.90
39585;DHT22;25278;53.674;10.014;2022-07-12T09:12:28;20.90;99.90
39585;DHT22;25278;53.674;10.014;2022-07-12T09:14:53;20.70;99.90
39585;DHT22;25278;53.674;10.014;2022-07-12T09:17:22;20.70;99.90
39585;DHT22;25278;53.674;10.014;2022-07-12T09:19:54;20.30;99.90
39585;DHT22;25278;53.674;10.014;2022-07-12T09:22:20;20.20;99.90
39585;DHT22;25278;53.674;10.014;2022-07-12T09:24:46;20.30;99.90
39585;DHT22;25278;53.674;10.014;2022-07-12T09:27:11;20.40;99.90
39585;DHT22;25278;53.674;10.014;2022-07-12T09:29:48;20.50;99.90
39585;DHT22;25278;53.674;10.014;2022-07-12T09:32:14;20.60;99.90
39585;DHT22;25278;53.674;10.014;2022-07-12T09:34:59;20.50;99.90
39585;DHT22;25278;53.674;10.014;2022-07-12T09:37:43;20.90;99.90
39585;DHT22;25278;53.674;10.014;2022-07-12T09:40:09;21.30;99.90
39585;DHT22;25278;53.674;10.014;2022-07-12T09:42:34;21.70;99.90
39585;DHT22;25278;53.674;10.014;2022-07-12T09:45:00;22.00;99.90
39585;DHT22;25278;53.674;10.014;2022-07-12T09:47:26;22.30;99.90
39585;DHT22;25278;53.674;10.014;2022-07-12T09:49:51;22.50;99.90
39585;DHT22;25278;53.674;10.014;2022-07-12T09:54:46;22.30;99.90
39585;DHT22;25278;53.674;10.014;2022-07-12T09:57:29;22.40;99.90
39585;DHT22;25278;53.674;10.014;2022-07-12T09:59:55;22.30;99.90
39585;DHT22;25278;53.674;10.014;2022-07-12T10:02:21;22.30;99.90
39585;DHT22;25278;53.674;10.014;2022-07-12T10:04:47;21.90;99.90
39585;DHT22;25278;53.674;10.014;2022-07-12T10:07:13;22.10;99.90
39585;DHT22;25278;53.674;10.014;2022-07-12T10:09:39;22.30;99.90
39585;DHT22;25278;53.674;10.014;2022-07-12T10:12:05;22.40;99.90
39585;DHT22;25278;53.674;10.014;2022-07-12T10:14:31;22.40;99.90
39585;DHT22;25278;53.674;10.014;2022-07-12T10:16:58;22.60;99.90
39585;DHT22;25278;53.674;10.014;2022-07-12T10:21:59;22.60;99.90
39585;DHT22;25278;53.674;10.014;2022-07-12T10:27:00;22.70;99.90
39585;DHT22;25278;53.674;10.014;2022-07-12T10:29:25;23.00;99.90
39585;DHT22;25278;53.674;10.014;2022-07-12T10:39:20;24.60;99.90
39585;DHT22;25278;53.674;10.014;2022-07-12T10:44:37;24.10;99.90
39585;DHT22;25278;53.674;10.014;2022-07-12T10:47:03;24.00;99.90
39585;DHT22;25278;53.674;10.014;2022-07-12T10:49:29;24.10;99.90
39585;DHT22;25278;53.674;10.014;2022-07-12T10:57:04;23.90;99.90
39585;DHT22;25278;53.674;10.014;2022-07-12T10:59:30;23.90;99.90
39585;DHT22;25278;53.674;10.014;2022-07-12T11:01:58;23.90;99.90
39585;DHT22;25278;53.674;10.014;2022-07-12T11:04:25;23.80;99.90
39585;DHT22;25278;53.674;10.014;2022-07-12T11:06:51;24.00;99.90
39585;DHT22;25278;53.674;10.014;2022-07-12T11:09:20;24.00;99.90
39585;DHT22;25278;53.674;10.014;2022-07-12T11:11:47;23.90;99.90
39585;DHT22;25278;53.674;10.014;2022-07-12T11:14:25;24.30;99.90
39585;DHT22;25278;53.674;10.014;2022-07-12T11:16:51;25.00;99.90
39585;DHT22;25278;53.674;10.014;2022-07-12T11:31:27;25.30;99.90
39585;DHT22;25278;53.674;10.014;2022-07-12T11:33:52;25.80;99.90
39585;DHT22;25278;53.674;10.014;2022-07-12T11:36:18;26.40;99.90
39585;DHT22;25278;53.674;10.014;2022-07-12T11:38:45;26.50;99.90
39585;DHT22;25278;53.674;10.014;2022-07-12T11:41:12;26.80;99.90
39585;DHT22;25278;53.674;10.014;2022-07-12T11:43:38;26.90;99.90
39585;DHT22;25278;53.674;10.014;2022-07-12T11:46:04;27.20;99.90
39585;DHT22;25278;53.674;10.014;2022-07-12T11:48:30;27.00;99.90
39585;DHT22;25278;53.674;10.014;2022-07-12T11:51:01;27.00;99.90
39585;DHT22;25278;53.674;10.014;2022-07-12T11:53:28;26.70;99.90
39585;DHT22;25278;53.674;10.014;2022-07-12T11:55:54;26.70;99.90
39585;DHT22;25278;53.674;10.014;2022-07-12T11:58:21;26.70;99.90
39585;DHT22;25278;53.674;10.014;2022-07-12T12:00:47;26.10;99.90
39585;DHT22;25278;53.674;10.014;2022-07-12T12:03:14;25.70;99.90
39585;DHT22;25278;53.674;10.014;2022-07-12T12:05:41;25.80;99.90
39585;DHT22;25278;53.674;10.014;2022-07-12T12:08:07;26.00;99.90
39585;DHT22;25278;53.674;10.014;2022-07-12T12:10:33;26.40;99.90
39585;DHT22;25278;53.674;10.014;2022-07-12T12:30:04;27.00;99.90
39585;DHT22;25278;53.674;10.014;2022-07-12T12:32:42;27.40;99.90
39585;DHT22;25278;53.674;10.014;2022-07-12T12:35:08;27.40;99.90
39585;DHT22;25278;53.674;10.014;2022-07-12T12:37:34;27.30;99.90
39585;DHT22;25278;53.674;10.014;2022-07-12T12:40:00;27.20;99.90
39585;DHT22;25278;53.674;10.014;2022-07-12T12:42:26;26.90;99.90
39585;DHT22;25278;53.674;10.014;2022-07-12T12:44:51;26.50;99.90
39585;DHT22;25278;53.674;10.014;2022-07-12T12:47:17;26.60;99.90
39585;DHT22;25278;53.674;10.014;2022-07-12T12:49:58;26.80;99.90
39585;DHT22;25278;53.674;10.014;2022-07-12T12:52:26;27.10;99.90
39585;DHT22;25278;53.674;10.014;2022-07-12T12:54:52;27.10;99.90
39585;DHT22;25278;53.674;10.014;2022-07-12T12:57:18;27.10;99.90
39585;DHT22;25278;53.674;10.014;2022-07-12T12:59:43;27.70;99.90
39585;DHT22;25278;53.674;10.014;2022-07-12T13:02:08;28.10;99.90
39585;DHT22;25278;53.674;10.014;2022-07-12T13:04:35;27.50;99.90
39585;DHT22;25278;53.674;10.014;2022-07-12T13:07:01;27.50;99.90
39585;DHT22;25278;53.674;10.014;2022-07-12T13:09:27;27.80;99.90
39585;DHT22;25278;53.674;10.014;2022-07-12T13:11:54;27.90;99.90
39585;DHT22;25278;53.674;10.014;2022-07-12T13:14:20;28.30;99.90
39585;DHT22;25278;53.674;10.014;2022-07-12T13:16:45;28.50;99.90
39585;DHT22;25278;53.674;10.014;2022-07-12T13:19:11;28.40;99.90
39585;DHT22;25278;53.674;10.014;2022-07-12T13:21:36;28.30;99.90
39585;DHT22;25278;53.674;10.014;2022-07-12T13:24:02;28.60;99.90
39585;DHT22;25278;53.674;10.014;2022-07-12T13:26:27;28.90;99.90
39585;DHT22;25278;53.674;10.014;2022-07-12T13:28:53;29.30;99.90
39585;DHT22;25278;53.674;10.014;2022-07-12T13:31:19;28.90;99.90
39585;DHT22;25278;53.674;10.014;2022-07-12T13:33:45;28.90;99.90
39585;DHT22;25278;53.674;10.014;2022-07-12T13:41:03;29.00;99.90
39585;DHT22;25278;53.674;10.014;2022-07-12T13:43:29;30.00;99.90
39585;DHT22;25278;53.674;10.014;2022-07-12T13:45:55;29.60;99.90
39585;DHT22;25278;53.674;10.014;2022-07-12T13:48:20;29.70;99.90
39585;DHT22;25278;53.674;10.014;2022-07-12T13:50:46;29.80;99.90
39585;DHT22;25278;53.674;10.014;2022-07-12T13:53:12;30.00;99.90
39585;DHT22;25278;53.674;10.014;2022-07-12T13:55:39;29.90;99.90
39585;DHT22;25278;53.674;10.014;2022-07-12T13:58:06;29.60;99.90
39585;DHT22;25278;53.674;10.014;2022-07-12T14:00:32;29.20;99.90
39585;DHT22;25278;53.674;10.014;2022-07-12T14:02:57;29.20;99.90
39585;DHT22;25278;53.674;10.014;2022-07-12T14:05:23;29.10;99.90
39585;DHT22;25278;53.674;10.014;2022-07-12T14:07:48;28.80;99.90
39585;DHT22;25278;53.674;10.014;2022-07-12T14:10:15;28.50;99.90
39585;DHT22;25278;53.674;10.014;2022-07-12T14:12:40;28.60;99.90
39585;DHT22;25278;53.674;10.014;2022-07-12T14:15:06;28.80;99.90
39585;DHT22;25278;53.674;10.014;2022-07-12T14:17:41;29.40;99.90
39585;DHT22;25278;53.674;10.014;2022-07-12T14:20:11;29.00;99.90
39585;DHT22;25278;53.674;10.014;2022-07-12T14:22:37;29.00;99.90
39585;DHT22;25278;53.674;10.014;2022-07-12T14:25:04;29.00;99.90
39585;DHT22;25278;53.674;10.014;2022-07-12T14:27:30;29.60;99.90
39585;DHT22;25278;53.674;10.014;2022-07-12T14:34:47;30.30;99.90
39585;DHT22;25278;53.674;10.014;2022-07-12T14:37:13;34.30;99.90
39585;DHT22;25278;53.674;10.014;2022-07-12T14:39:38;35.40;98.30
39585;DHT22;25278;53.674;10.014;2022-07-12T14:42:04;35.00;96.90
39585;DHT22;25278;53.674;10.014;2022-07-12T14:44:29;35.90;95.40
39585;DHT22;25278;53.674;10.014;2022-07-12T14:46:55;36.20;93.40
39585;DHT22;25278;53.674;10.014;2022-07-12T14:49:21;36.70;93.00
39585;DHT22;25278;53.674;10.014;2022-07-12T14:51:46;37.00;92.10
39585;DHT22;25278;53.674;10.014;2022-07-12T14:54:12;36.00;90.50
39585;DHT22;25278;53.674;10.014;2022-07-12T14:56:38;36.10;90.50
39585;DHT22;25278;53.674;10.014;2022-07-12T14:59:03;36.40;89.90
39585;DHT22;25278;53.674;10.014;2022-07-12T15:01:29;35.40;84.70
39585;DHT22;25278;53.674;10.014;2022-07-12T15:03:54;35.60;85.60
39585;DHT22;25278;53.674;10.014;2022-07-12T15:06:20;34.70;86.30
39585;DHT22;25278;53.674;10.014;2022-07-12T15:08:45;35.20;86.70
39585;DHT22;25278;53.674;10.014;2022-07-12T15:11:11;35.20;85.60
39585;DHT22;25278;53.674;10.014;2022-07-12T15:13:37;35.00;86.30
39585;DHT22;25278;53.674;10.014;2022-07-12T15:16:02;34.70;83.80
39585;DHT22;25278;53.674;10.014;2022-07-12T15:18:28;34.10;81.90
39585;DHT22;25278;53.674;10.014;2022-07-12T15:20:53;33.30;84.40
39585;DHT22;25278;53.674;10.014;2022-07-12T15:23:19;33.40;86.40
39585;DHT22;25278;53.674;10.014;2022-07-12T15:25:44;33.50;87.60
39585;DHT22;25278;53.674;10.014;2022-07-12T15:28:10;33.30;87.20
39585;DHT22;25278;53.674;10.014;2022-07-12T15:30:35;33.60;89.00
39585;DHT22;25278;53.674;10.014;2022-07-12T15:33:01;33.60;87.50
39585;DHT22;25278;53.674;10.014;2022-07-12T15:35:27;33.40;86.80
39585;DHT22;25278;53.674;10.014;2022-07-12T15:37:52;33.70;87.30
39585;DHT22;25278;53.674;10.014;2022-07-12T15:40:18;33.60;87.20
39585;DHT22;25278;53.674;10.014;2022-07-12T15:42:44;33.10;88.60
39585;DHT22;25278;53.674;10.014;2022-07-12T15:45:09;33.70;89.00
39585;DHT22;25278;53.674;10.014;2022-07-12T15:47:37;33.90;87.80
39585;DHT22;25278;53.674;10.014;2022-07-12T15:50:02;35.00;88.30
39585;DHT22;25278;53.674;10.014;2022-07-12T15:52:28;35.00;85.60
39585;DHT22;25278;53.674;10.014;2022-07-12T15:55:12;34.30;85.10
39585;DHT22;25278;53.674;10.014;2022-07-12T15:57:38;34.40;88.00
39585;DHT22;25278;53.674;10.014;2022-07-12T16:00:04;34.90;89.30
39585;DHT22;25278;53.674;10.014;2022-07-12T16:02:31;36.00;86.90
39585;DHT22;25278;53.674;10.014;2022-07-12T16:04:56;37.30;86.40
39585;DHT22;25278;53.674;10.014;2022-07-12T16:07:24;38.10;83.60
39585;DHT22;25278;53.674;10.014;2022-07-12T16:09:50;38.80;83.10
39585;DHT22;25278;53.674;10.014;2022-07-12T16:12:17;39.50;81.30
39585;DHT22;25278;53.674;10.014;2022-07-12T16:14:43;39.10;77.40
39585;DHT22;25278;53.674;10.014;2022-07-12T16:17:09;38.90;75.80
39585;DHT22;25278;53.674;10.014;2022-07-12T16:19:34;38.10;77.00
39585;DHT22;25278;53.674;10.014;2022-07-12T16:22:00;38.70;77.80
39585;DHT22;25278;53.674;10.014;2022-07-12T16:24:25;37.10;77.70
39585;DHT22;25278;53.674;10.014;2022-07-12T16:26:51;36.40;78.80
39585;DHT22;25278;53.674;10.014;2022-07-12T16:29:16;36.10;79.70
39585;DHT22;25278;53.674;10.014;2022-07-12T16:31:42;35.70;79.70
39585;DHT22;25278;53.674;10.014;2022-07-12T16:34:07;35.00;80.10
39585;DHT22;25278;53.674;10.014;2022-07-12T16:36:33;34.80;80.40
39585;DHT22;25278;53.674;10.014;2022-07-12T16:38:59;34.70;80.60
39585;DHT22;25278;53.674;10.014;2022-07-12T16:41:24;34.30;80.60
39585;DHT22;25278;53.674;10.014;2022-07-12T16:43:49;33.20;81.60
39585;DHT22;25278;53.674;10.014;2022-07-12T16:46:15;32.90;82.50
39585;DHT22;25278;53.674;10.014;2022-07-12T16:48:40;31.90;83.90
39585;DHT22;25278;53.674;10.014;2022-07-12T16:51:06;32.10;86.10
39585;DHT22;25278;53.674;10.014;2022-07-12T16:53:47;32.20;87.50
39585;DHT22;25278;53.674;10.014;2022-07-12T16:56:13;31.90;87.70
39585;DHT22;25278;53.674;10.014;2022-07-12T16:58:39;31.60;88.40
39585;DHT22;25278;53.674;10.014;2022-07-12T17:01:07;31.80;88.80
39585;DHT22;25278;53.674;10.014;2022-07-12T17:03:32;31.40;88.40
39585;DHT22;25278;53.674;10.014;2022-07-12T17:05:59;30.50;90.30
39585;DHT22;25278;53.674;10.014;2022-07-12T17:08:25;30.00;91.40
39585;DHT22;25278;53.674;10.014;2022-07-12T17:10:50;29.60;91.40
39585;DHT22;25278;53.674;10.014;2022-07-12T17:13:16;29.30;90.90
39585;DHT22;25278;53.674;10.014;2022-07-12T17:15:42;29.00;91.30
39585;DHT22;25278;53.674;10.014;2022-07-12T17:18:07;28.50;92.10
39585;DHT22;25278;53.674;10.014;2022-07-12T17:20:33;28.30;92.60
39585;DHT22;25278;53.674;10.014;2022-07-12T17:22:58;28.20;92.80
39585;DHT22;25278;53.674;10.014;2022-07-12T17:25:23;28.00;93.30
39585;DHT22;25278;53.674;10.014;2022-07-12T17:27:49;28.10;93.60
39585;DHT22;25278;53.674;10.014;2022-07-12T17:30:15;27.90;93.20
39585;DHT22;25278;53.674;10.014;2022-07-12T17:32:40;27.40;93.70
39585;DHT22;25278;53.674;10.014;2022-07-12T17:35:07;27.10;94.60
39585;DHT22;25278;53.674;10.014;2022-07-12T17:37:32;26.90;95.40
39585;DHT22;25278;53.674;10.014;2022-07-12T17:39:58;26.80;96.20
39585;DHT22;25278;53.674;10.014;2022-07-12T17:42:24;26.50;96.80
39585;DHT22;25278;53.674;10.014;2022-07-12T17:44:49;26.40;97.80
39585;DHT22;25278;53.674;10.014;2022-07-12T17:47:14;26.10;98.40
39585;DHT22;25278;53.674;10.014;2022-07-12T17:49:40;25.80;99.30
39585;DHT22;25278;53.674;10.014;2022-07-12T17:52:05;25.40;99.90
39585;DHT22;25278;53.674;10.014;2022-07-12T17:54:31;25.20;99.90
39585;DHT22;25278;53.674;10.014;2022-07-12T17:56:56;25.00;99.90
39585;DHT22;25278;53.674;10.014;2022-07-12T17:59:22;24.90;99.90
39585;DHT22;25278;53.674;10.014;2022-07-12T18:01:47;24.80;99.90
39585;DHT22;25278;53.674;10.014;2022-07-12T18:04:13;24.70;99.90
39585;DHT22;25278;53.674;10.014;2022-07-12T18:06:39;24.50;99.90
39585;DHT22;25278;53.674;10.014;2022-07-12T18:09:07;24.50;99.90
39585;DHT22;25278;53.674;10.014;2022-07-12T18:11:32;24.50;99.90
39585;DHT22;25278;53.674;10.014;2022-07-12T18:14:17;24.50;99.90
39585;DHT22;25278;53.674;10.014;2022-07-12T18:17:01;24.40;99.90
39585;DHT22;25278;53.674;10.014;2022-07-12T18:19:45;24.30;99.90
39585;DHT22;25278;53.674;10.014;2022-07-12T18:22:10;24.40;99.90
39585;DHT22;25278;53.674;10.014;2022-07-12T18:24:36;24.40;99.90
39585;DHT22;25278;53.674;10.014;2022-07-12T18:27:01;24.40;99.90
39585;DHT22;25278;53.674;10.014;2022-07-12T18:29:27;24.40;99.90
39585;DHT22;25278;53.674;10.014;2022-07-12T18:31:52;24.50;99.90
39585;DHT22;25278;53.674;10.014;2022-07-12T18:34:18;24.40;99.90
39585;DHT22;25278;53.674;10.014;2022-07-12T18:36:43;24.40;99.90
39585;DHT22;25278;53.674;10.014;2022-07-12T18:39:10;24.20;99.90
39585;DHT22;25278;53.674;10.014;2022-07-12T18:41:37;24.10;99.90
39585;DHT22;25278;53.674;10.014;2022-07-12T18:44:03;24.00;99.90
39585;DHT22;25278;53.674;10.014;2022-07-12T18:46:29;23.70;99.90
39585;DHT22;25278;53.674;10.014;2022-07-12T18:48:54;23.60;99.90
39585;DHT22;25278;53.674;10.014;2022-07-12T18:51:20;23.50;99.90
39585;DHT22;25278;53.674;10.014;2022-07-12T18:53:45;23.40;99.90
39585;DHT22;25278;53.674;10.014;2022-07-12T18:56:11;23.40;99.90
39585;DHT22;25278;53.674;10.014;2022-07-12T18:58:36;23.30;99.90
39585;DHT22;25278;53.674;10.014;2022-07-12T19:01:02;23.20;99.90
39585;DHT22;25278;53.674;10.014;2022-07-12T19:03:27;23.10;99.90
39585;DHT22;25278;53.674;10.014;2022-07-12T19:05:53;23.00;99.90
39585;DHT22;25278;53.674;10.014;2022-07-12T19:08:18;23.00;99.90
39585;DHT22;25278;53.674;10.014;2022-07-12T19:10:44;22.90;99.90
39585;DHT22;25278;53.674;10.014;2022-07-12T19:13:09;22.90;99.90
39585;DHT22;25278;53.674;10.014;2022-07-12T19:15:38;22.80;99.90
39585;DHT22;25278;53.674;10.014;2022-07-12T19:18:03;22.70;99.90
39585;DHT22;25278;53.674;10.014;2022-07-12T19:20:29;22.60;99.90
39585;DHT22;25278;53.674;10.014;2022-07-12T19:22:54;22.60;99.90
39585;DHT22;25278;53.674;10.014;2022-07-12T19:25:19;22.50;99.90
39585;DHT22;25278;53.674;10.014;2022-07-12T19:27:45;22.40;99.90
39585;DHT22;25278;53.674;10.014;2022-07-12T19:30:10;22.30;99.90
39585;DHT22;25278;53.674;10.014;2022-07-12T19:32:36;22.20;99.90
39585;DHT22;25278;53.674;10.014;2022-07-12T19:35:01;22.10;99.90
39585;DHT22;25278;53.674;10.014;2022-07-12T19:37:27;22.10;99.90
39585;DHT22;25278;53.674;10.014;2022-07-12T19:39:52;22.00;99.90
39585;DHT22;25278;53.674;10.014;2022-07-12T19:42:18;21.90;99.90
39585;DHT22;25278;53.674;10.014;2022-07-12T19:44:44;21.80;99.90
39585;DHT22;25278;53.674;10.014;2022-07-12T19:47:09;21.60;99.90
39585;DHT22;25278;53.674;10.014;2022-07-12T19:49:35;21.60;99.90
39585;DHT22;25278;53.674;10.014;2022-07-12T19:52:00;21.60;99.90
39585;DHT22;25278;53.674;10.014;2022-07-12T19:54:26;21.50;99.90
39585;DHT22;25278;53.674;10.014;2022-07-12T19:56:52;21.40;99.90
39585;DHT22;25278;53.674;10.014;2022-07-12T19:59:18;21.30;99.90
39585;DHT22;25278;53.674;10.014;2022-07-12T20:01:45;21.10;99.90
39585;DHT22;25278;53.674;10.014;2022-07-12T20:04:11;20.90;99.90
39585;DHT22;25278;53.674;10.014;2022-07-12T20:06:36;20.80;99.90
39585;DHT22;25278;53.674;10.014;2022-07-12T20:09:03;20.70;99.90
39585;DHT22;25278;53.674;10.014;2022-07-12T20:11:29;20.60;99.90
39585;DHT22;25278;53.674;10.014;2022-07-12T20:13:54;20.50;99.90
39585;DHT22;25278;53.674;10.014;2022-07-12T20:16:20;20.40;99.90
39585;DHT22;25278;53.674;10.014;2022-07-12T20:18:46;20.30;99.90
39585;DHT22;25278;53.674;10.014;2022-07-12T20:21:11;20.20;99.90
39585;DHT22;25278;53.674;10.014;2022-07-12T20:23:37;20.10;99.90
39585;DHT22;25278;53.674;10.014;2022-07-12T20:26:04;20.00;99.90
39585;DHT22;25278;53.674;10.014;2022-07-12T20:28:29;20.00;99.90
39585;DHT22;25278;53.674;10.014;2022-07-12T20:30:55;20.00;99.90
39585;DHT22;25278;53.674;10.014;2022-07-12T20:33:20;19.90;99.90
39585;DHT22;25278;53.674;10.014;2022-07-12T20:36:04;19.70;99.90
39585;DHT22;25278;53.674;10.014;2022-07-12T20:38:30;19.70;99.90
39585;DHT22;25278;53.674;10.014;2022-07-12T20:40:55;19.70;99.90
39585;DHT22;25278;53.674;10.014;2022-07-12T20:43:37;19.60;99.90
39585;DHT22;25278;53.674;10.014;2022-07-12T20:46:03;19.60;99.90
39585;DHT22;25278;53.674;10.014;2022-07-12T20:48:28;19.70;99.90
39585;DHT22;25278;53.674;10.014;2022-07-12T20:50:54;19.60;99.90
39585;DHT22;25278;53.674;10.014;2022-07-12T20:53:19;19.60;99.90
39585;DHT22;25278;53.674;10.014;2022-07-12T20:55:45;19.70;99.90
39585;DHT22;25278;53.674;10.014;2022-07-12T20:58:11;19.70;99.90
39585;DHT22;25278;53.674;10.014;2022-07-12T21:00:36;19.70;99.90
39585;DHT22;25278;53.674;10.014;2022-07-12T21:03:02;19.70;99.90
39585;DHT22;25278;53.674;10.014;2022-07-12T21:05:28;19.60;99.90
39585;DHT22;25278;53.674;10.014;2022-07-12T21:07:53;19.60;99.90
39585;DHT22;25278;53.674;10.014;2022-07-12T21:10:19;19.60;99.90
39585;DHT22;25278;53.674;10.014;2022-07-12T21:12:44;19.60;99.90
39585;DHT22;25278;53.674;10.014;2022-07-12T21:15:10;19.70;99.90
39585;DHT22;25278;53.674;10.014;2022-07-12T21:17:40;19.60;99.90
39585;DHT22;25278;53.674;10.014;2022-07-12T21:20:07;19.50;99.90
39585;DHT22;25278;53.674;10.014;2022-07-12T21:22:32;19.50;99.90
39585;DHT22;25278;53.674;10.014;2022-07-12T21:24:58;19.60;99.90
39585;DHT22;25278;53.674;10.014;2022-07-12T21:27:23;19.60;99.90
39585;DHT22;25278;53.674;10.014;2022-07-12T21:29:49;19.60;99.90
39585;DHT22;25278;53.674;10.014;2022-07-12T21:32:14;19.60;99.90
39585;DHT22;25278;53.674;10.014;2022-07-12T21:34:45;19.50;99.90
39585;DHT22;25278;53.674;10.014;2022-07-12T21:37:11;19.60;99.90
39585;DHT22;25278;53.674;10.014;2022-07-12T21:39:37;19.80;99.90
39585;DHT22;25278;53.674;10.014;2022-07-12T21:42:02;19.80;99.90
39585;DHT22;25278;53.674;10.014;2022-07-12T21:44:27;19.90;99.90